Skagway, AK

1:50 AM AKST on January 21, 2017 (GMT -0900)
Skagway | | Change Station
Active Advisory: Wind Chill Advisory

Elev 43 ft 59.46 °N, 135.32 °W | Updated 57 minutes ago

Light Snow
Light Snow
15 °F
Feels Like -6 °F
N
34
Wind Variable Wind from NE
Gusts 44 mph

Today
High -- | Low -- °F
--% Chance of Precip.
Yesterday
High -- | Low -- °F
Precip. -- in
Pressure 29.73 in
Visibility 9.0 miles
Clouds Clear
Windchill -6 °F
Dew Point -8 °F
Humidity 36%
Rainfall 0.00 in
Snow Depth Not available.
8:33 AM 3:52 PM
Last Quarter, 36% visible
METAR PAGY 210953Z AUTO 04030G38KT 9SM -SN CLR M09/M22 A2973 RMK AO2 PK WND 04043/0926 SLP068 P0000 T10941222 TSNO
Pressure 29.73 in
Visibility 9.0 miles
Clouds Clear
Windchill -6 °F
Dew Point -8 °F
Humidity 36%
Rainfall 0.00 in
Snow Depth Not available.
8:33 AM 3:52 PM
Last Quarter, 36% visible
METAR PAGY 210953Z AUTO 04030G38KT 9SM -SN CLR M09/M22 A2973 RMK AO2 PK WND 04043/0926 SLP068 P0000 T10941222 TSNO

Get Your Daily Forecast Email!

Thanks for signing up!

Be on the lookout for a verification email in your inbox.

You'll start receiving the daily forecast at 8 AM.

×

10-Day Weather Forecast

Almanac

Astronomy

Jan. 21, 2017 Rise Set
Actual Time
Civil Twilight
Nautical Twilight
Astronomical Twilight
Moon
Length of Visible Light
Length of Day
Tomorrow will be .
, % of the Moon is Illuminated

Today's Extremes

State Highs State Lows

Community

WunderPhotos

Upload Photos

1,962,540 photos uploaded!

WunderBlog® & News

Nearby

Air Quality

  Air Quality AQ Index Pollutant
Not available.

Snow Depth

Station Depth Elevation

Earthquake Activity

City Distance Mag. Time & Date
Minimum magnitude displayed is 2.5.

Coastal Water Temperatures

Place Temperature

Stations

Nearby Weather Stations

Station Location Temp. Windchill Dew Point Humidity Wind Precip. Elev Updated Type
                   

Watches & Warnings

Wind Chill Advisory
Issued: 10:54 PM AKST Jan. 20, 2017 – National Weather Service

... Wind Chill Advisory remains in effect from 3 am to 9 am akst
Saturday...

* location... Klondike Highway mainly near White Pass.

* Wind chill values... winds chill temperatures 30 to 35 below.

* Wind... NE winds 20 mph with gust to 40 mph tonight into
Saturday.

* Timing... 3 am to 9 am Saturday morning.

* Impacts... exposed skin can freeze within 30 minutes. Reduced
visibilities in areas of blowing snow will make travel
hazardous.

Precautionary/preparedness actions...

An advisory means dangerous wind chill temperatures are already
occurring or imminent.

Exposed skin in the advisory area will become frostbitten in
30 minutes.

This statement will be updated by 9 am akst Saturday morning or
sooner if conditions warrant.